createdAt,value
2023-05-06T00:02:19.710Z,100774.52
2023-05-06T00:04:46.465Z,100773.91
2023-05-06T00:07:13.189Z,100770.09
2023-05-06T00:09:39.776Z,100768.58
2023-05-06T00:12:06.429Z,100768.05
2023-05-06T00:14:33.079Z,100761.71
2023-05-06T00:16:59.693Z,100760.55
2023-05-06T00:19:26.430Z,100761.13
2023-05-06T00:21:53.025Z,100758.99
2023-05-06T00:24:19.582Z,100756.44
2023-05-06T00:26:46.162Z,100756.63
2023-05-06T00:29:12.892Z,100751.75
2023-05-06T00:31:39.638Z,100752.48
2023-05-06T00:34:06.335Z,100754.53
2023-05-06T00:36:33.007Z,100750.80
2023-05-06T00:38:59.940Z,100749.80
2023-05-06T00:41:31.142Z,100744.66
2023-05-06T00:43:57.780Z,100746.65
2023-05-06T00:46:24.889Z,100747.56
2023-05-06T00:48:52.536Z,100750.17
2023-05-06T00:51:19.225Z,100753.88
2023-05-06T00:53:49.057Z,100751.17
2023-05-06T00:56:20.030Z,100747.76
2023-05-06T00:58:47.894Z,100748.12
2023-05-06T01:01:14.606Z,100747.89
2023-05-06T01:03:41.292Z,100751.21
2023-05-06T01:06:14.043Z,100745.23
2023-05-06T01:08:51.961Z,100745.66
2023-05-06T01:11:35.567Z,100743.33
2023-05-06T01:14:19.255Z,100741.96
2023-05-06T01:16:49.319Z,100737.95
2023-05-06T01:19:36.723Z,100739.34
2023-05-06T01:22:06.087Z,100737.30
2023-05-06T01:24:37.698Z,100734.59
2023-05-06T01:27:04.369Z,100734.63
2023-05-06T01:29:34.125Z,100732.10
2023-05-06T01:32:07.996Z,100731.02
2023-05-06T01:34:43.804Z,100733.52
2023-05-06T01:37:25.808Z,100732.13
2023-05-06T01:39:56.139Z,100732.89
2023-05-06T01:42:24.603Z,100729.61
2023-05-06T01:44:53.083Z,100726.76
2023-05-06T01:47:20.041Z,100727.96
2023-05-06T01:49:47.868Z,100725.86
2023-05-06T01:52:17.601Z,100729.83
2023-05-06T01:54:44.396Z,100727.35
2023-05-06T01:57:11.037Z,100727.02
2023-05-06T01:59:37.699Z,100721.65
2023-05-06T02:02:04.419Z,100721.40
2023-05-06T02:04:31.981Z,100720.42
2023-05-06T02:06:58.669Z,100722.06
2023-05-06T02:09:25.331Z,100722.20
2023-05-06T02:11:56.470Z,100720.79
2023-05-06T02:14:23.749Z,100722.70
2023-05-06T02:16:50.646Z,100714.19
2023-05-06T02:19:17.451Z,100716.71
2023-05-06T02:21:44.079Z,100713.33
2023-05-06T02:24:10.704Z,100711.58
2023-05-06T02:26:37.312Z,100712.53
2023-05-06T02:29:04.145Z,100711.18
2023-05-06T02:31:31.783Z,100711.77
2023-05-06T02:33:58.478Z,100715.02
2023-05-06T02:36:25.174Z,100713.69
2023-05-06T02:38:54.549Z,100710.33
2023-05-06T02:41:21.345Z,100713.64
2023-05-06T02:43:47.965Z,100711.56
2023-05-06T02:46:14.728Z,100710.56
2023-05-06T02:48:42.147Z,100712.09
2023-05-06T02:51:08.806Z,100710.64
2023-05-06T02:53:35.511Z,100710.13
2023-05-06T02:56:02.131Z,100714.41
2023-05-06T02:58:29.307Z,100710.31
2023-05-06T03:00:56.083Z,100708.48
2023-05-06T03:03:22.880Z,100710.59
2023-05-06T03:05:49.569Z,100713.67
2023-05-06T03:08:16.335Z,100715.73
2023-05-06T03:10:42.997Z,100709.98
2023-05-06T03:13:09.720Z,100711.21
2023-05-06T03:15:37.337Z,100711.52
2023-05-06T03:18:04.079Z,100715.33
2023-05-06T03:20:30.741Z,100717.05
2023-05-06T03:22:58.406Z,100716.76
2023-05-06T03:25:25.088Z,100715.95
2023-05-06T03:27:52.124Z,100720.05
2023-05-06T03:30:21.127Z,100718.41
2023-05-06T03:32:48.983Z,100720.86
2023-05-06T03:35:20.539Z,100726.95
2023-05-06T03:37:51.312Z,100721.93
2023-05-06T03:40:18.589Z,100728.09
2023-05-06T03:42:46.131Z,100727.08
2023-05-06T03:45:13.457Z,100726.94
2023-05-06T03:47:40.983Z,100722.41
2023-05-06T03:50:08.924Z,100724.30
2023-05-06T03:52:36.136Z,100727.62
2023-05-06T03:55:03.279Z,100726.92
2023-05-06T03:57:30.865Z,100726.65
2023-05-06T03:59:57.928Z,100729.30
2023-05-06T04:02:25.749Z,100730.63
2023-05-06T04:04:52.858Z,100727.04
2023-05-06T04:07:19.610Z,100723.77
2023-05-06T04:09:46.345Z,100721.52
2023-05-06T04:12:13.810Z,100728.01
2023-05-06T04:14:40.464Z,100728.13
2023-05-06T04:17:07.793Z,100730.81
2023-05-06T04:19:34.723Z,100735.14
2023-05-06T04:22:01.422Z,100737.16
2023-05-06T04:24:31.457Z,100732.09
2023-05-06T04:26:58.756Z,100731.30
2023-05-06T04:29:27.061Z,100730.49
2023-05-06T04:31:57.942Z,100732.45
2023-05-06T04:34:27.841Z,100731.73
2023-05-06T04:36:55.445Z,100732.02
2023-05-06T04:39:37.032Z,100730.80
2023-05-06T04:42:04.062Z,100737.23
2023-05-06T04:44:36.669Z,100740.27
2023-05-06T04:47:04.252Z,100743.19
2023-05-06T04:49:31.406Z,100742.70
2023-05-06T04:51:58.587Z,100744.05
2023-05-06T04:54:25.499Z,100743.23
2023-05-06T04:56:52.180Z,100742.81
2023-05-06T04:59:19.290Z,100738.90
2023-05-06T05:01:46.204Z,100742.55
2023-05-06T05:04:12.917Z,100747.66
2023-05-06T05:06:39.865Z,100749.95
2023-05-06T05:09:06.494Z,100751.84
2023-05-06T05:11:33.506Z,100753.36
2023-05-06T05:14:02.204Z,100754.30
2023-05-06T05:16:30.156Z,100757.96
2023-05-06T05:18:57.038Z,100761.86
2023-05-06T05:21:26.576Z,100767.49
2023-05-06T05:23:54.824Z,100765.39
2023-05-06T05:26:21.988Z,100765.87
2023-05-06T05:28:49.417Z,100768.36
2023-05-06T05:31:16.815Z,100768.10
2023-05-06T05:33:43.656Z,100765.50
2023-05-06T05:36:15.453Z,100766.59
2023-05-06T05:38:43.373Z,100769.02
2023-05-06T05:41:10.430Z,100766.48
2023-05-06T05:43:37.335Z,100763.35
2023-05-06T05:46:04.410Z,100764.52
2023-05-06T05:48:32.819Z,100759.13
2023-05-06T05:51:03.438Z,100759.98
2023-05-06T05:53:30.148Z,100760.59
2023-05-06T05:55:57.059Z,100763.45
2023-05-06T05:58:24.199Z,100759.49
2023-05-06T06:00:51.159Z,100759.63
2023-05-06T06:03:18.798Z,100760.74
2023-05-06T06:05:45.621Z,100759.59
2023-05-06T06:08:13.041Z,100760.17
2023-05-06T06:10:39.868Z,100761.23
2023-05-06T06:13:11.025Z,100762.98
2023-05-06T06:15:37.732Z,100765.36
2023-05-06T06:18:04.521Z,100767.10
2023-05-06T06:20:31.883Z,100767.36
2023-05-06T06:22:58.592Z,100766.98
2023-05-06T06:25:25.547Z,100767.45
2023-05-06T06:27:55.285Z,100767.46
2023-05-06T06:30:22.113Z,100765.63
2023-05-06T06:32:50.918Z,100764.33
2023-05-06T06:35:17.820Z,100768.42
2023-05-06T06:37:44.849Z,100767.46
2023-05-06T06:40:12.472Z,100769.74
2023-05-06T06:42:39.132Z,100769.57
2023-05-06T06:45:19.118Z,100769.25
2023-05-06T06:47:45.771Z,100771.30
2023-05-06T06:50:12.618Z,100773.09
2023-05-06T06:52:39.300Z,100773.97
2023-05-06T06:55:06.620Z,100772.98
2023-05-06T06:57:33.194Z,100774.77
2023-05-06T06:59:59.809Z,100776.09
2023-05-06T07:02:26.452Z,100775.85
2023-05-06T07:04:53.899Z,100778.44
2023-05-06T07:07:20.757Z,100780.66
2023-05-06T07:09:47.408Z,100784.27
2023-05-06T07:12:14.091Z,100783.38
2023-05-06T07:14:41.459Z,100780.83
2023-05-06T07:17:08.072Z,100783.31
2023-05-06T07:19:34.660Z,100780.70
2023-05-06T07:22:03.088Z,100779.32
2023-05-06T07:24:29.736Z,100780.20
2023-05-06T07:26:56.714Z,100776.38
2023-05-06T07:29:23.431Z,100778.97
2023-05-06T07:31:50.178Z,100782.52
2023-05-06T07:34:16.888Z,100784.88
2023-05-06T07:36:44.835Z,100784.97
2023-05-06T07:39:12.601Z,100786.38
2023-05-06T07:41:39.586Z,100788.60
2023-05-06T07:44:06.566Z,100791.09
2023-05-06T07:46:33.765Z,100788.28
2023-05-06T07:49:00.524Z,100789.10
2023-05-06T07:51:27.312Z,100790.10
2023-05-06T07:53:53.952Z,100791.13
2023-05-06T07:56:20.732Z,100793.38
2023-05-06T07:58:49.407Z,100795.20
2023-05-06T08:01:16.439Z,100802.98
2023-05-06T08:03:44.131Z,100798.04
2023-05-06T08:06:11.089Z,100800.27
2023-05-06T08:08:37.724Z,100800.59
2023-05-06T08:11:04.904Z,100806.63
2023-05-06T08:13:33.522Z,100804.91
2023-05-06T08:16:02.597Z,100803.20
2023-05-06T08:18:29.971Z,100805.57
2023-05-06T08:20:56.859Z,100800.75
2023-05-06T08:23:23.716Z,100802.14
2023-05-06T08:25:50.346Z,100805.20
2023-05-06T08:28:17.109Z,100797.52
2023-05-06T08:30:46.026Z,100795.73
2023-05-06T08:33:12.681Z,100797.47
2023-05-06T08:35:39.300Z,100797.75
2023-05-06T08:38:05.901Z,100800.10
2023-05-06T08:40:33.846Z,100797.23
2023-05-06T08:43:03.409Z,100799.46
2023-05-06T08:45:30.325Z,100799.91
2023-05-06T08:47:58.149Z,100796.10
2023-05-06T08:50:25.860Z,100795.27
2023-05-06T08:52:52.759Z,100791.83
2023-05-06T08:55:21.646Z,100798.10
2023-05-06T08:57:49.530Z,100797.59
2023-05-06T09:00:17.623Z,100795.73
2023-05-06T09:02:44.472Z,100796.08
2023-05-06T09:05:12.506Z,100797.61
2023-05-06T09:07:39.554Z,100798.42
2023-05-06T09:10:13.756Z,100798.95
2023-05-06T09:12:40.614Z,100799.73
2023-05-06T09:15:09.470Z,100800.33
2023-05-06T09:17:36.668Z,100799.88
2023-05-06T09:20:03.717Z,100800.00
2023-05-06T09:22:31.452Z,100793.77
2023-05-06T09:24:59.088Z,100790.17
2023-05-06T09:27:28.376Z,100788.03
2023-05-06T09:30:05.984Z,100790.08
2023-05-06T09:32:33.508Z,100790.10
2023-05-06T09:35:00.980Z,100789.62
2023-05-06T09:37:28.240Z,100789.52
2023-05-06T09:39:57.508Z,100788.99
2023-05-06T09:42:26.585Z,100789.08
2023-05-06T09:44:55.706Z,100785.30
2023-05-06T09:47:24.176Z,100784.48
2023-05-06T09:49:50.891Z,100783.28
2023-05-06T09:52:19.515Z,100786.45
2023-05-06T09:54:46.883Z,100786.46
2023-05-06T09:57:17.264Z,100785.15
2023-05-06T09:59:45.167Z,100785.27
2023-05-06T10:02:13.444Z,100780.78
2023-05-06T10:04:45.941Z,100778.57
2023-05-06T10:07:13.719Z,100777.61
2023-05-06T10:09:42.299Z,100771.06
2023-05-06T10:12:10.022Z,100768.97
2023-05-06T10:14:37.607Z,100762.96
2023-05-06T10:17:11.683Z,100762.31
2023-05-06T10:19:42.339Z,100763.23
2023-05-06T10:22:17.200Z,100760.34
2023-05-06T10:24:56.058Z,100759.99
2023-05-06T10:27:24.985Z,100759.48
2023-05-06T10:29:57.884Z,100757.48
2023-05-06T10:32:30.007Z,100751.46
2023-05-06T10:34:59.381Z,100747.05
2023-05-06T10:37:28.644Z,100745.27
2023-05-06T10:39:56.506Z,100749.05
2023-05-06T10:42:34.128Z,100743.68
2023-05-06T10:45:04.033Z,100738.40
2023-05-06T10:48:03.084Z,100734.01
2023-05-06T10:50:29.677Z,100731.09
2023-05-06T10:52:59.002Z,100729.57
2023-05-06T10:55:37.800Z,100727.98
2023-05-06T10:58:15.454Z,100722.46
2023-05-06T11:00:42.614Z,100723.09
2023-05-06T11:03:14.065Z,100717.85
2023-05-06T11:05:51.980Z,100716.69
2023-05-06T11:08:26.092Z,100709.17
2023-05-06T11:10:55.829Z,100706.17
2023-05-06T11:13:27.662Z,100702.68
2023-05-06T11:15:57.169Z,100704.23
2023-05-06T11:18:31.891Z,100697.94
2023-05-06T11:21:00.391Z,100696.80
2023-05-06T11:23:42.662Z,100699.98
2023-05-06T11:26:11.181Z,100697.98
2023-05-06T11:28:40.474Z,100699.83
2023-05-06T11:31:08.375Z,100697.42
2023-05-06T11:33:37.364Z,100696.89
2023-05-06T11:36:05.015Z,100699.05
2023-05-06T11:38:45.662Z,100701.83
2023-05-06T11:41:13.474Z,100696.80
2023-05-06T11:43:40.250Z,100693.60
2023-05-06T11:46:07.233Z,100690.36
2023-05-06T11:48:33.934Z,100684.61
2023-05-06T11:51:00.721Z,100689.80
2023-05-06T11:53:27.381Z,100686.27
2023-05-06T11:55:54.865Z,100686.22
2023-05-06T11:58:27.471Z,100683.23
2023-05-06T12:00:59.143Z,100685.31
2023-05-06T12:03:28.783Z,100685.62
2023-05-06T12:05:56.227Z,100685.83
2023-05-06T12:08:30.013Z,100682.64
2023-05-06T12:11:01.005Z,100683.90
2023-05-06T12:13:28.453Z,100681.45
2023-05-06T12:15:56.402Z,100686.60
2023-05-06T12:18:24.042Z,100677.86
2023-05-06T12:20:53.808Z,100672.96
2023-05-06T12:23:22.091Z,100664.52
2023-05-06T12:26:04.210Z,100666.98
2023-05-06T12:28:32.756Z,100673.14
2023-05-06T12:31:17.804Z,100673.45
2023-05-06T12:33:46.536Z,100673.02
2023-05-06T12:36:13.461Z,100669.59
2023-05-06T12:38:50.619Z,100669.98
2023-05-06T12:41:17.412Z,100664.30
2023-05-06T12:43:44.086Z,100662.91
2023-05-06T12:46:12.444Z,100659.94
2023-05-06T12:48:39.553Z,100659.14
2023-05-06T12:51:19.824Z,100660.73
2023-05-06T12:53:46.586Z,100662.92
2023-05-06T12:56:13.868Z,100656.37
2023-05-06T12:58:40.583Z,100653.27
2023-05-06T13:01:09.857Z,100646.55
2023-05-06T13:03:38.832Z,100644.59
2023-05-06T13:06:05.900Z,100643.02
2023-05-06T13:08:32.650Z,100634.23
2023-05-06T13:11:01.744Z,100629.91
2023-05-06T13:13:28.703Z,100628.17
2023-05-06T13:15:55.849Z,100623.64
2023-05-06T13:18:22.492Z,100620.67
2023-05-06T13:20:49.127Z,100622.13
2023-05-06T13:23:15.692Z,100622.61
2023-05-06T13:26:00.346Z,100618.27
2023-05-06T13:28:28.933Z,100618.20
2023-05-06T13:30:55.584Z,100617.89
2023-05-06T13:33:22.291Z,100619.22
2023-05-06T13:35:48.915Z,100616.77
2023-05-06T13:38:15.513Z,100616.42
2023-05-06T13:40:42.082Z,100615.15
2023-05-06T13:43:09.064Z,100614.52
2023-05-06T13:45:35.707Z,100613.55
2023-05-06T13:48:02.326Z,100613.85
2023-05-06T13:50:29.108Z,100607.73
2023-05-06T13:52:55.761Z,100606.32
2023-05-06T13:55:22.347Z,100609.23
2023-05-06T13:57:48.918Z,100607.45
2023-05-06T14:00:16.043Z,100606.56
2023-05-06T14:02:42.734Z,100607.43
2023-05-06T14:05:10.712Z,100608.41
2023-05-06T14:07:40.200Z,100608.36
2023-05-06T14:10:08.790Z,100604.41
2023-05-06T14:12:35.542Z,100602.70
2023-05-06T14:15:02.292Z,100604.09
2023-05-06T14:17:28.985Z,100605.79
2023-05-06T14:19:55.849Z,100602.02
2023-05-06T14:22:22.493Z,100598.09
2023-05-06T14:24:49.234Z,100597.52
2023-05-06T14:27:15.956Z,100595.96
2023-05-06T14:29:43.308Z,100595.96
2023-05-06T14:32:09.946Z,100593.02
2023-05-06T14:34:36.948Z,100593.67
2023-05-06T14:37:03.728Z,100590.77
2023-05-06T14:39:30.661Z,100586.65
2023-05-06T14:41:57.629Z,100583.86
2023-05-06T14:44:24.216Z,100581.54
2023-05-06T14:46:50.927Z,100576.19
2023-05-06T14:49:17.615Z,100578.73
2023-05-06T14:51:44.509Z,100578.97
2023-05-06T14:54:11.373Z,100577.45
2023-05-06T14:56:38.088Z,100573.27
2023-05-06T14:59:04.734Z,100574.93
2023-05-06T15:01:33.728Z,100574.48
2023-05-06T15:04:00.500Z,100571.51
2023-05-06T15:06:27.401Z,100571.79
2023-05-06T15:08:54.126Z,100572.67
2023-05-06T15:11:21.025Z,100577.10
2023-05-06T15:13:47.662Z,100577.55
2023-05-06T15:16:16.964Z,100577.77
2023-05-06T15:18:45.122Z,100578.42
2023-05-06T15:21:13.321Z,100579.79
2023-05-06T15:23:39.984Z,100581.54
2023-05-06T15:26:06.738Z,100579.88
2023-05-06T15:28:33.410Z,100581.15
2023-05-06T15:31:00.124Z,100577.99
2023-05-06T15:33:26.817Z,100578.34
2023-05-06T15:35:53.407Z,100577.31
2023-05-06T15:38:20.046Z,100575.46
2023-05-06T15:40:51.365Z,100574.56
2023-05-06T15:43:23.604Z,100574.59
2023-05-06T15:45:51.293Z,100582.92
2023-05-06T15:48:18.122Z,100587.06
2023-05-06T15:50:44.914Z,100584.83
2023-05-06T15:53:11.720Z,100580.79
2023-05-06T15:55:46.775Z,100579.27
2023-05-06T15:58:19.395Z,100578.27
2023-05-06T16:00:45.954Z,100574.50
2023-05-06T16:03:12.915Z,100571.35
2023-05-06T16:05:39.949Z,100572.70
2023-05-06T16:08:06.681Z,100574.98
2023-05-06T16:10:35.506Z,100573.46
2023-05-06T16:13:02.200Z,100574.53
2023-05-06T16:15:28.904Z,100564.85
2023-05-06T16:17:56.057Z,100554.16
2023-05-06T16:20:22.797Z,100549.08
2023-05-06T16:22:50.818Z,100541.60
2023-05-06T16:25:17.538Z,100543.37
2023-05-06T16:27:44.198Z,100547.47
2023-05-06T16:30:11.418Z,100553.09
2023-05-06T16:32:38.322Z,100550.70
2023-05-06T16:35:05.528Z,100552.68
2023-05-06T16:37:32.105Z,100560.64
2023-05-06T16:39:58.692Z,100558.35
2023-05-06T16:42:25.289Z,100560.60
2023-05-06T16:44:52.047Z,100556.56
2023-05-06T16:47:23.540Z,100555.27
2023-05-06T16:49:50.724Z,100549.32
2023-05-06T16:52:17.904Z,100550.45
2023-05-06T16:54:44.672Z,100551.29
2023-05-06T16:57:11.841Z,100550.42
2023-05-06T16:59:38.571Z,100551.77
2023-05-06T17:02:05.316Z,100557.63
2023-05-06T17:04:31.901Z,100559.80
2023-05-06T17:06:58.589Z,100558.82
2023-05-06T17:09:26.696Z,100559.52
2023-05-06T17:11:53.310Z,100558.23
2023-05-06T17:14:19.971Z,100559.39
2023-05-06T17:16:47.237Z,100559.33
2023-05-06T17:19:14.091Z,100559.98
2023-05-06T17:21:41.045Z,100559.84
2023-05-06T17:24:07.748Z,100562.06
2023-05-06T17:26:35.219Z,100556.19
2023-05-06T17:29:01.979Z,100557.66
2023-05-06T17:31:28.693Z,100555.42
2023-05-06T17:33:55.430Z,100557.82
2023-05-06T17:36:22.100Z,100556.73
2023-05-06T17:38:49.153Z,100551.56
2023-05-06T17:41:15.961Z,100548.09
2023-05-06T17:43:43.415Z,100547.61
2023-05-06T17:46:10.151Z,100549.73
2023-05-06T17:48:36.896Z,100550.16
2023-05-06T17:51:03.613Z,100551.41
2023-05-06T17:53:32.395Z,100552.00
2023-05-06T17:55:59.053Z,100553.68
2023-05-06T17:58:25.710Z,100557.27
2023-05-06T18:00:52.405Z,100557.09
2023-05-06T18:03:19.167Z,100557.20
2023-05-06T18:05:45.973Z,100558.07
2023-05-06T18:08:12.694Z,100561.96
2023-05-06T18:10:41.157Z,100559.43
2023-05-06T18:13:08.891Z,100565.90
2023-05-06T18:15:35.867Z,100564.39
2023-05-06T18:18:02.855Z,100561.06
2023-05-06T18:20:29.480Z,100562.33
2023-05-06T18:22:56.730Z,100556.91
2023-05-06T18:25:23.471Z,100558.23
2023-05-06T18:27:50.147Z,100557.64
2023-05-06T18:30:16.808Z,100557.84
2023-05-06T18:32:43.560Z,100563.91
2023-05-06T18:35:11.448Z,100561.52
2023-05-06T18:37:39.373Z,100561.73
2023-05-06T18:40:09.037Z,100566.77
2023-05-06T18:42:36.079Z,100566.77
2023-05-06T18:45:04.958Z,100571.98
2023-05-06T18:47:32.352Z,100574.86
2023-05-06T18:50:00.785Z,100579.19
2023-05-06T18:52:27.636Z,100588.44
2023-05-06T18:54:54.195Z,100594.45
2023-05-06T18:57:21.058Z,100591.77
2023-05-06T18:59:47.919Z,100600.15
2023-05-06T19:02:14.658Z,100605.39
2023-05-06T19:04:41.302Z,100608.61
2023-05-06T19:07:08.038Z,100612.35
2023-05-06T19:09:37.144Z,100613.79
2023-05-06T19:12:04.663Z,100620.00
2023-05-06T19:14:32.609Z,100621.16
2023-05-06T19:16:59.304Z,100623.95
2023-05-06T19:19:26.113Z,100630.69
2023-05-06T19:21:52.823Z,100631.30
2023-05-06T19:24:19.416Z,100637.60
2023-05-06T19:26:46.480Z,100636.88
2023-05-06T19:29:14.755Z,100635.87
2023-05-06T19:31:41.383Z,100640.84
2023-05-06T19:34:08.718Z,100644.65
2023-05-06T19:36:35.361Z,100644.36
2023-05-06T19:39:02.017Z,100648.23
2023-05-06T19:41:28.750Z,100644.85
2023-05-06T19:43:55.361Z,100646.98
2023-05-06T19:46:22.047Z,100647.53
2023-05-06T19:48:48.734Z,100648.91
2023-05-06T19:51:15.459Z,100651.23
2023-05-06T19:53:42.035Z,100646.96
2023-05-06T19:56:13.268Z,100652.36
2023-05-06T19:58:40.666Z,100651.40
2023-05-06T20:01:07.379Z,100654.39
2023-05-06T20:03:35.613Z,100657.45
2023-05-06T20:06:08.861Z,100660.31
2023-05-06T20:08:35.702Z,100661.26
2023-05-06T20:11:02.446Z,100667.50
2023-05-06T20:13:29.182Z,100670.59
2023-05-06T20:15:57.341Z,100674.55
2023-05-06T20:18:24.421Z,100682.65
2023-05-06T20:20:51.059Z,100680.84
2023-05-06T20:23:17.712Z,100679.09
2023-05-06T20:25:44.401Z,100677.00
2023-05-06T20:28:11.137Z,100677.31
2023-05-06T20:30:38.719Z,100678.00
2023-05-06T20:33:07.496Z,100684.11
2023-05-06T20:35:38.463Z,100683.88
2023-05-06T20:38:06.668Z,100685.74
2023-05-06T20:40:35.854Z,100690.94
2023-05-06T20:43:02.801Z,100688.81
2023-05-06T20:45:31.056Z,100691.70
2023-05-06T20:47:58.014Z,100695.55
2023-05-06T20:50:24.680Z,100688.39
2023-05-06T20:52:51.959Z,100686.39
2023-05-06T20:55:20.650Z,100688.80
2023-05-06T20:57:47.409Z,100685.77
2023-05-06T21:00:14.748Z,100685.58
2023-05-06T21:02:42.234Z,100691.77
2023-05-06T21:05:10.200Z,100696.23
2023-05-06T21:07:37.243Z,100698.33
2023-05-06T21:10:05.833Z,100703.11
2023-05-06T21:12:33.422Z,100698.84
2023-05-06T21:15:00.549Z,100698.96
2023-05-06T21:17:27.446Z,100709.48
2023-05-06T21:19:54.378Z,100705.58
2023-05-06T21:22:24.469Z,100704.63
2023-05-06T21:24:51.282Z,100707.13
2023-05-06T21:27:18.079Z,100707.66
2023-05-06T21:29:44.790Z,100709.94
2023-05-06T21:32:11.604Z,100713.16
2023-05-06T21:34:38.264Z,100716.40
2023-05-06T21:37:04.941Z,100721.56
2023-05-06T21:39:31.503Z,100724.69
2023-05-06T21:41:58.267Z,100723.25
2023-05-06T21:44:24.979Z,100730.21
2023-05-06T21:46:51.601Z,100732.27
2023-05-06T21:49:19.620Z,100729.69
2023-05-06T21:51:46.305Z,100729.60
2023-05-06T21:54:13.017Z,100729.44
2023-05-06T21:56:39.601Z,100723.35
2023-05-06T21:59:07.880Z,100724.90
2023-05-06T22:01:36.376Z,100724.74
2023-05-06T22:04:04.937Z,100728.71
2023-05-06T22:06:32.378Z,100729.86
2023-05-06T22:08:59.018Z,100732.59
2023-05-06T22:11:25.583Z,100732.16
2023-05-06T22:13:52.298Z,100729.95
2023-05-06T22:16:18.938Z,100729.55
2023-05-06T22:18:45.749Z,100727.24
2023-05-06T22:21:12.441Z,100731.01
2023-05-06T22:23:40.704Z,100731.27
2023-05-06T22:26:07.461Z,100729.86
2023-05-06T22:28:34.489Z,100729.15
2023-05-06T22:31:01.154Z,100731.60
2023-05-06T22:33:27.820Z,100729.64
2023-05-06T22:35:55.537Z,100729.57
2023-05-06T22:38:22.246Z,100733.86
2023-05-06T22:40:48.921Z,100729.14
2023-05-06T22:43:15.632Z,100730.41
2023-05-06T22:45:42.298Z,100727.27
2023-05-06T22:48:08.989Z,100716.41
2023-05-06T22:50:36.496Z,100716.27
2023-05-06T22:53:13.686Z,100716.98
2023-05-06T22:55:42.086Z,100716.98
2023-05-06T22:58:08.791Z,100716.27
2023-05-06T23:00:35.567Z,100717.70
2023-05-06T23:03:02.918Z,100719.67
2023-05-06T23:05:29.565Z,100717.80
2023-05-06T23:07:56.166Z,100718.50
2023-05-06T23:10:22.873Z,100718.11
2023-05-06T23:12:49.551Z,100717.04
2023-05-06T23:15:16.212Z,100722.87
2023-05-06T23:17:42.895Z,100724.63
2023-05-06T23:20:11.931Z,100723.34
2023-05-06T23:22:38.647Z,100726.65
2023-05-06T23:25:05.814Z,100722.55
2023-05-06T23:27:32.416Z,100723.02
2023-05-06T23:29:59.088Z,100718.44
2023-05-06T23:32:25.782Z,100716.20
2023-05-06T23:34:52.802Z,100716.41
2023-05-06T23:37:19.444Z,100713.29
2023-05-06T23:39:47.565Z,100712.50
2023-05-06T23:42:14.388Z,100710.88
2023-05-06T23:44:41.099Z,100708.25
2023-05-06T23:47:07.692Z,100706.21
2023-05-06T23:49:35.995Z,100703.69
2023-05-06T23:52:03.187Z,100703.42
2023-05-06T23:54:30.038Z,100704.64
2023-05-06T23:56:56.696Z,100703.52
2023-05-06T23:59:23.352Z,100703.59
